createdAt,value
2022-08-16T00:01:34.073Z,20.96
2022-08-16T00:04:05.333Z,20.95
2022-08-16T00:06:34.285Z,20.96
2022-08-16T00:09:06.083Z,20.96
2022-08-16T00:11:35.148Z,20.97
2022-08-16T00:14:10.326Z,20.94
2022-08-16T00:17:06.561Z,20.95
2022-08-16T00:19:41.016Z,20.97
2022-08-16T00:22:13.652Z,20.99
2022-08-16T00:24:46.819Z,20.96
2022-08-16T00:27:17.382Z,20.95
2022-08-16T00:29:46.464Z,20.92
2022-08-16T00:32:18.231Z,20.85
2022-08-16T00:34:53.567Z,20.79
2022-08-16T00:37:57.237Z,20.77
2022-08-16T00:40:43.612Z,20.73
2022-08-16T00:43:43.245Z,20.70
2022-08-16T00:46:33.573Z,20.65
2022-08-16T00:49:17.689Z,20.68
2022-08-16T00:51:54.830Z,20.65
2022-08-16T00:54:31.181Z,20.61
2022-08-16T00:57:04.153Z,20.58
2022-08-16T00:59:36.819Z,20.54
2022-08-16T01:02:46.870Z,20.52
2022-08-16T01:05:12.089Z,20.49
2022-08-16T01:07:51.919Z,20.43
2022-08-16T01:10:31.457Z,20.37
2022-08-16T01:13:15.260Z,20.34
2022-08-16T01:15:52.763Z,20.34
2022-08-16T01:18:39.402Z,20.30
2022-08-16T01:21:22.214Z,20.29
2022-08-16T01:24:04.938Z,20.27
2022-08-16T01:27:03.752Z,20.30
2022-08-16T01:29:59.680Z,20.31
2022-08-16T01:32:34.530Z,20.26
2022-08-16T01:35:20.696Z,20.26
2022-08-16T01:37:54.685Z,20.23
2022-08-16T01:40:30.871Z,20.24
2022-08-16T01:43:00.278Z,20.23
2022-08-16T01:45:40.787Z,20.18
2022-08-16T01:48:19.651Z,20.11
2022-08-16T01:51:16.310Z,20.09
2022-08-16T01:53:42.172Z,20.06
2022-08-16T01:56:28.024Z,20.03
2022-08-16T01:59:02.600Z,19.97
2022-08-16T02:01:34.706Z,19.94
2022-08-16T02:04:11.007Z,19.93
2022-08-16T02:06:45.931Z,19.87
2022-08-16T02:09:17.936Z,19.90
2022-08-16T02:11:53.679Z,19.85
2022-08-16T02:14:27.356Z,19.82
2022-08-16T02:17:02.378Z,19.76
2022-08-16T02:19:58.522Z,19.85
2022-08-16T02:22:34.478Z,19.89
2022-08-16T02:25:14.748Z,19.90
2022-08-16T02:27:50.767Z,19.86
2022-08-16T02:30:36.088Z,19.84
2022-08-16T02:33:15.417Z,19.78
2022-08-16T02:35:53.835Z,19.83
2022-08-16T02:38:31.595Z,19.83
2022-08-16T02:41:09.584Z,19.87
2022-08-16T02:43:40.064Z,19.94
2022-08-16T02:46:10.240Z,19.96
2022-08-16T02:48:49.121Z,20.01
2022-08-16T02:51:19.343Z,20.05
2022-08-16T02:53:52.897Z,20.07
2022-08-16T02:56:23.019Z,20.06
2022-08-16T02:58:53.711Z,20.08
2022-08-16T03:01:33.775Z,20.07
2022-08-16T03:04:40.838Z,20.08
2022-08-16T03:07:05.422Z,20.08
2022-08-16T03:09:39.929Z,20.06
2022-08-16T03:12:16.363Z,20.06
2022-08-16T03:14:48.062Z,20.04
2022-08-16T03:17:19.379Z,20.00
2022-08-16T03:20:00.002Z,19.99
2022-08-16T03:22:33.550Z,19.97
2022-08-16T03:25:09.656Z,19.99
2022-08-16T03:27:41.171Z,20.07
2022-08-16T03:30:24.076Z,20.14
2022-08-16T03:32:56.449Z,20.18
2022-08-16T03:35:32.759Z,20.18
2022-08-16T03:38:32.644Z,20.19
2022-08-16T03:41:14.391Z,20.20
2022-08-16T03:43:57.679Z,20.23
2022-08-16T03:46:47.702Z,20.24
2022-08-16T03:49:37.089Z,20.29
2022-08-16T03:52:08.172Z,20.32
2022-08-16T03:54:38.387Z,20.33
2022-08-16T03:57:23.146Z,20.33
2022-08-16T03:59:52.238Z,20.35
2022-08-16T04:02:22.186Z,20.36
2022-08-16T04:04:54.288Z,20.38
2022-08-16T04:07:25.989Z,20.38
2022-08-16T04:09:54.777Z,20.42
2022-08-16T04:12:52.467Z,20.43
2022-08-16T04:15:17.589Z,20.41
2022-08-16T04:18:02.256Z,20.29
2022-08-16T04:20:33.858Z,20.22
2022-08-16T04:23:08.360Z,20.10
2022-08-16T04:25:39.773Z,20.07
2022-08-16T04:28:29.310Z,20.06
2022-08-16T04:31:00.456Z,19.96
2022-08-16T04:33:30.168Z,19.85
2022-08-16T04:36:04.857Z,19.79
2022-08-16T04:38:35.038Z,19.77
2022-08-16T04:41:04.320Z,19.71
2022-08-16T04:43:38.614Z,19.72
2022-08-16T04:46:29.944Z,19.73
2022-08-16T04:49:05.403Z,19.79
2022-08-16T04:51:36.274Z,19.78
2022-08-16T04:54:05.268Z,19.79
2022-08-16T04:56:42.808Z,19.84
2022-08-16T04:59:15.508Z,19.91
2022-08-16T05:01:58.232Z,19.95
2022-08-16T05:04:30.131Z,20.04
2022-08-16T05:06:59.904Z,20.06
2022-08-16T05:09:45.131Z,20.15
2022-08-16T05:12:22.065Z,20.26
2022-08-16T05:15:02.747Z,20.31
2022-08-16T05:17:34.836Z,20.37
2022-08-16T05:20:35.560Z,20.42
2022-08-16T05:22:59.621Z,20.54
2022-08-16T05:25:41.009Z,20.56
2022-08-16T05:28:18.935Z,20.70
2022-08-16T05:30:56.071Z,20.80
2022-08-16T05:33:27.304Z,20.91
2022-08-16T05:35:58.358Z,20.98
2022-08-16T05:38:39.220Z,21.16
2022-08-16T05:41:13.797Z,21.20
2022-08-16T05:43:47.694Z,21.37
2022-08-16T05:46:43.683Z,21.46
2022-08-16T05:49:22.340Z,21.66
2022-08-16T05:51:57.559Z,21.66
2022-08-16T05:54:28.918Z,21.67
2022-08-16T05:57:00.238Z,21.78
2022-08-16T05:59:29.876Z,21.75
2022-08-16T06:01:59.306Z,21.60
2022-08-16T06:04:34.904Z,21.85
2022-08-16T06:07:07.582Z,21.81
2022-08-16T06:09:44.406Z,22.10
2022-08-16T06:12:26.803Z,22.23
2022-08-16T06:15:04.267Z,22.15
2022-08-16T06:17:41.700Z,22.10
2022-08-16T06:20:24.166Z,22.02
2022-08-16T06:23:03.699Z,21.90
2022-08-16T06:25:52.882Z,21.95
2022-08-16T06:28:34.798Z,21.86
2022-08-16T06:31:09.824Z,21.94
2022-08-16T06:33:44.878Z,21.91
2022-08-16T06:36:17.207Z,21.89
2022-08-16T06:38:56.994Z,21.95
2022-08-16T06:41:44.403Z,22.07
2022-08-16T06:44:24.633Z,22.23
2022-08-16T06:46:58.696Z,22.35
2022-08-16T06:49:32.303Z,22.60
2022-08-16T06:52:02.782Z,22.84
2022-08-16T06:54:37.117Z,23.02
2022-08-16T06:57:16.470Z,23.09
2022-08-16T06:59:52.366Z,23.04
2022-08-16T07:02:32.884Z,22.97
2022-08-16T07:05:14.940Z,23.01
2022-08-16T07:07:52.424Z,22.77
2022-08-16T07:10:25.743Z,22.67
2022-08-16T07:13:04.376Z,22.76
2022-08-16T07:15:50.830Z,22.79
2022-08-16T07:18:24.573Z,22.65
2022-08-16T07:20:56.045Z,22.76
2022-08-16T07:23:37.224Z,22.91
2022-08-16T07:26:25.192Z,23.05
2022-08-16T07:28:55.609Z,23.19
2022-08-16T07:31:25.103Z,23.31
2022-08-16T07:34:10.012Z,23.50
2022-08-16T07:36:39.496Z,23.61
2022-08-16T07:39:09.186Z,23.61
2022-08-16T07:41:42.078Z,23.65
2022-08-16T07:44:16.373Z,23.85
2022-08-16T07:46:47.328Z,23.65
2022-08-16T07:49:25.718Z,23.59
2022-08-16T07:52:02.214Z,23.62
2022-08-16T07:54:48.941Z,23.53
2022-08-16T07:57:18.942Z,23.63
2022-08-16T07:59:48.777Z,23.48
2022-08-16T08:02:20.308Z,23.39
2022-08-16T08:04:56.907Z,23.69
2022-08-16T08:07:29.596Z,23.95
2022-08-16T08:10:05.921Z,24.29
2022-08-16T08:12:41.239Z,24.39
2022-08-16T08:15:15.082Z,24.38
2022-08-16T08:17:54.823Z,24.26
2022-08-16T08:20:30.261Z,24.21
2022-08-16T08:23:03.154Z,23.97
2022-08-16T08:25:53.887Z,24.04
2022-08-16T08:28:27.979Z,23.70
2022-08-16T08:31:08.305Z,23.69
2022-08-16T08:33:43.795Z,23.38
2022-08-16T08:36:33.268Z,22.44
2022-08-16T08:39:55.391Z,20.39
2022-08-16T08:42:27.046Z,19.95
2022-08-16T08:44:57.271Z,19.66
2022-08-16T08:47:26.168Z,19.44
2022-08-16T08:49:57.012Z,19.34
2022-08-16T08:52:34.775Z,19.34
2022-08-16T08:55:10.919Z,19.34
2022-08-16T08:57:46.509Z,19.32
2022-08-16T09:00:50.179Z,19.29
2022-08-16T09:03:20.653Z,19.26
2022-08-16T09:05:54.566Z,19.24
2022-08-16T09:08:26.562Z,19.22
2022-08-16T09:11:03.158Z,19.26
2022-08-16T09:13:33.443Z,19.26
2022-08-16T09:16:03.439Z,19.26
2022-08-16T09:18:35.963Z,19.37
2022-08-16T09:21:09.304Z,19.50
2022-08-16T09:23:40.182Z,19.50
2022-08-16T09:26:44.292Z,19.55
2022-08-16T09:29:14.949Z,19.64
2022-08-16T09:31:53.319Z,19.70
2022-08-16T09:34:23.525Z,19.72
2022-08-16T09:36:54.541Z,19.78
2022-08-16T09:39:23.607Z,19.83
2022-08-16T09:41:56.554Z,19.81
2022-08-16T09:45:10.825Z,19.80
2022-08-16T09:47:15.834Z,19.81
2022-08-16T09:49:44.870Z,19.80
2022-08-16T09:52:22.349Z,19.80
2022-08-16T09:54:51.415Z,19.87
2022-08-16T09:57:20.320Z,19.87
2022-08-16T09:59:56.185Z,19.96
2022-08-16T10:02:27.867Z,20.10
2022-08-16T10:04:58.984Z,20.20
2022-08-16T10:07:44.417Z,20.29
2022-08-16T10:10:18.652Z,20.39
2022-08-16T10:13:08.966Z,20.49
2022-08-16T10:15:41.741Z,20.47
2022-08-16T10:19:02.320Z,20.62
2022-08-16T10:21:02.208Z,20.78
2022-08-16T10:23:31.143Z,20.97
2022-08-16T10:27:16.245Z,20.97
2022-08-16T10:28:50.325Z,21.21
2022-08-16T10:31:44.450Z,21.19
2022-08-16T10:34:24.048Z,21.25
2022-08-16T10:36:57.715Z,21.71
2022-08-16T10:39:26.563Z,21.93
2022-08-16T10:42:14.441Z,22.28
2022-08-16T10:44:53.758Z,22.60
2022-08-16T10:47:23.958Z,22.74
2022-08-16T10:49:53.399Z,23.33
2022-08-16T10:52:24.481Z,23.68
2022-08-16T10:55:40.620Z,23.88
2022-08-16T10:57:42.179Z,23.77
2022-08-16T11:00:21.497Z,23.61
2022-08-16T11:02:59.578Z,24.02
2022-08-16T11:08:35.878Z,24.08
2022-08-16T11:11:11.480Z,24.33
2022-08-16T11:14:10.814Z,24.05
2022-08-16T11:19:28.316Z,24.06
2022-08-16T11:22:39.394Z,24.58
2022-08-16T11:25:11.795Z,24.88
2022-08-16T11:27:38.775Z,25.54
2022-08-16T11:30:12.320Z,25.69
2022-08-16T11:32:48.989Z,25.96
2022-08-16T11:38:47.120Z,25.79
2022-08-16T11:41:07.352Z,26.27
2022-08-16T11:43:40.696Z,27.15
2022-08-16T11:46:42.880Z,27.34
2022-08-16T11:49:03.118Z,27.25
2022-08-16T11:51:36.833Z,27.12
2022-08-16T11:54:09.033Z,26.62
2022-08-16T11:56:57.708Z,25.92
2022-08-16T11:59:30.252Z,25.55
2022-08-16T12:02:30.709Z,26.06
2022-08-16T12:04:51.778Z,26.04
2022-08-16T12:07:23.559Z,26.02
2022-08-16T12:09:54.146Z,26.29
2022-08-16T12:12:24.004Z,26.47
2022-08-16T12:14:59.371Z,26.73
2022-08-16T12:17:32.722Z,26.22
2022-08-16T12:20:02.712Z,26.09
2022-08-16T12:22:36.566Z,26.75
2022-08-16T12:25:08.459Z,27.79
2022-08-16T12:27:39.267Z,28.78
2022-08-16T12:30:12.699Z,29.41
2022-08-16T12:32:52.988Z,29.49
2022-08-16T12:35:24.923Z,29.95
2022-08-16T12:37:56.828Z,29.86
2022-08-16T12:40:32.560Z,30.57
2022-08-16T12:43:05.417Z,30.88
2022-08-16T12:45:39.997Z,30.81
2022-08-16T12:48:34.288Z,31.94
2022-08-16T12:51:13.462Z,32.23
2022-08-16T12:53:54.413Z,31.94
2022-08-16T12:56:28.705Z,31.83
2022-08-16T12:58:59.524Z,31.55
2022-08-16T13:01:33.583Z,31.34
2022-08-16T13:04:21.101Z,32.17
2022-08-16T13:06:54.683Z,32.82
2022-08-16T13:09:26.428Z,33.03
2022-08-16T13:12:16.862Z,33.01
2022-08-16T13:14:47.569Z,32.31
2022-08-16T13:17:29.712Z,32.29
2022-08-16T13:20:08.880Z,32.03
2022-08-16T13:22:46.120Z,32.64
2022-08-16T13:25:21.131Z,32.25
2022-08-16T13:28:01.790Z,30.87
2022-08-16T13:30:42.405Z,31.00
2022-08-16T13:33:18.212Z,30.29
2022-08-16T13:35:55.817Z,30.13
2022-08-16T13:38:37.023Z,30.53
2022-08-16T13:41:09.540Z,30.58
2022-08-16T13:43:38.866Z,30.57
2022-08-16T13:46:08.552Z,30.56
2022-08-16T13:48:43.977Z,30.80
2022-08-16T13:51:18.494Z,31.34
2022-08-16T13:53:59.074Z,31.66
2022-08-16T13:56:37.669Z,31.87
2022-08-16T13:59:20.401Z,31.84
2022-08-16T14:01:59.475Z,31.34
2022-08-16T14:04:39.453Z,31.46
2022-08-16T14:07:13.455Z,31.75
2022-08-16T14:09:50.338Z,31.82
2022-08-16T14:12:30.080Z,31.67
2022-08-16T14:15:00.116Z,31.59
2022-08-16T14:17:29.933Z,31.47
2022-08-16T14:20:08.611Z,31.52
2022-08-16T14:22:52.354Z,31.45
2022-08-16T14:25:26.822Z,30.94
2022-08-16T14:27:55.971Z,30.88
2022-08-16T14:30:25.671Z,30.79
2022-08-16T14:32:55.203Z,30.45
2022-08-16T14:35:48.167Z,30.58
2022-08-16T14:38:23.531Z,30.29
2022-08-16T14:40:55.599Z,30.41
2022-08-16T14:43:29.850Z,30.80
2022-08-16T14:45:59.737Z,30.87
2022-08-16T14:48:28.549Z,31.30
2022-08-16T14:50:58.202Z,31.43
2022-08-16T14:53:27.519Z,31.68
2022-08-16T14:55:56.379Z,31.85
2022-08-16T14:58:34.563Z,32.05
2022-08-16T15:01:09.999Z,32.43
2022-08-16T15:03:44.579Z,33.01
2022-08-16T15:06:14.475Z,33.35
2022-08-16T15:08:45.231Z,33.53
2022-08-16T15:11:15.168Z,33.47
2022-08-16T15:13:46.486Z,33.30
2022-08-16T15:16:16.189Z,33.89
2022-08-16T15:18:46.698Z,34.12
2022-08-16T15:21:15.993Z,34.09
2022-08-16T15:23:45.097Z,34.62
2022-08-16T15:26:34.810Z,34.64
2022-08-16T15:29:04.102Z,33.38
2022-08-16T15:31:32.752Z,33.84
2022-08-16T15:34:04.228Z,34.26
2022-08-16T15:36:33.017Z,34.76
2022-08-16T15:39:05.524Z,34.58
2022-08-16T15:41:43.138Z,33.77
2022-08-16T15:44:22.632Z,33.04
2022-08-16T15:46:58.968Z,32.44
2022-08-16T15:49:38.158Z,32.97
2022-08-16T15:52:18.331Z,32.18
2022-08-16T15:54:53.117Z,31.14
2022-08-16T15:57:28.245Z,30.00
2022-08-16T16:00:04.309Z,29.75
2022-08-16T16:02:41.207Z,29.16
2022-08-16T16:05:10.518Z,28.68
2022-08-16T16:07:40.768Z,28.44
2022-08-16T16:10:29.416Z,28.27
2022-08-16T16:13:05.790Z,28.08
2022-08-16T16:15:46.632Z,27.66
2022-08-16T16:18:16.978Z,27.35
2022-08-16T16:20:54.640Z,27.12
2022-08-16T16:23:54.966Z,27.05
2022-08-16T16:26:28.835Z,26.85
2022-08-16T16:29:08.314Z,26.55
2022-08-16T16:31:57.182Z,26.26
2022-08-16T16:34:32.288Z,26.21
2022-08-16T16:37:05.310Z,26.05
2022-08-16T16:39:38.817Z,25.92
2022-08-16T16:42:11.015Z,25.83
2022-08-16T16:45:01.744Z,25.73
2022-08-16T16:47:40.653Z,25.54
2022-08-16T16:50:12.599Z,25.35
2022-08-16T16:52:43.787Z,25.27
2022-08-16T16:55:14.658Z,25.21
2022-08-16T16:58:03.237Z,25.14
2022-08-16T17:00:38.266Z,25.06
2022-08-16T17:03:57.889Z,24.89
2022-08-16T17:06:26.681Z,24.78
2022-08-16T17:08:55.641Z,24.75
2022-08-16T17:11:25.724Z,24.63
2022-08-16T17:13:58.424Z,24.60
2022-08-16T17:16:32.979Z,24.53
2022-08-16T17:19:16.094Z,24.47
2022-08-16T17:21:48.411Z,24.43
2022-08-16T17:24:20.495Z,24.37
2022-08-16T17:26:56.017Z,24.30
2022-08-16T17:29:30.939Z,24.24
2022-08-16T17:32:33.108Z,24.15
2022-08-16T17:34:50.923Z,24.10
2022-08-16T17:37:22.126Z,23.98
2022-08-16T17:40:19.284Z,23.87
2022-08-16T17:42:55.457Z,23.77
2022-08-16T17:45:25.525Z,23.72
2022-08-16T17:47:54.761Z,23.65
2022-08-16T17:50:23.462Z,23.61
2022-08-16T17:52:55.793Z,23.55
2022-08-16T17:55:31.997Z,23.49
2022-08-16T17:58:00.852Z,23.42
2022-08-16T18:00:42.040Z,23.38
2022-08-16T18:04:06.716Z,23.32
2022-08-16T18:06:16.982Z,23.20
2022-08-16T18:08:50.574Z,23.09
2022-08-16T18:11:26.195Z,23.00
2022-08-16T18:13:55.671Z,22.95
2022-08-16T18:16:24.326Z,22.91
2022-08-16T18:18:53.043Z,22.89
2022-08-16T18:21:40.466Z,22.88
2022-08-16T18:24:11.715Z,22.80
2022-08-16T18:26:40.649Z,22.81
2022-08-16T18:29:09.408Z,22.79
2022-08-16T18:31:38.988Z,22.76
2022-08-16T18:34:07.795Z,22.75
2022-08-16T18:36:37.403Z,22.71
2022-08-16T18:39:06.479Z,22.63
2022-08-16T18:41:37.426Z,22.56
2022-08-16T18:44:26.849Z,22.43
2022-08-16T18:46:57.993Z,22.28
2022-08-16T18:49:26.729Z,22.16
2022-08-16T18:51:59.873Z,22.08
2022-08-16T18:54:30.792Z,22.03
2022-08-16T18:57:43.362Z,21.98
2022-08-16T19:00:14.962Z,21.91
2022-08-16T19:02:58.388Z,21.86
2022-08-16T19:05:31.446Z,21.84
2022-08-16T19:08:02.425Z,21.80
2022-08-16T19:10:33.788Z,21.74
2022-08-16T19:13:08.817Z,21.66
2022-08-16T19:15:42.895Z,21.58
2022-08-16T19:18:12.895Z,21.47
2022-08-16T19:20:44.286Z,21.53
2022-08-16T19:23:21.067Z,21.47
2022-08-16T19:26:02.478Z,21.41
2022-08-16T19:28:50.599Z,21.34
2022-08-16T19:31:33.351Z,21.26
2022-08-16T19:34:04.607Z,21.20
2022-08-16T19:36:39.851Z,21.12
2022-08-16T19:39:15.744Z,21.03
2022-08-16T19:41:53.324Z,21.00
2022-08-16T19:44:23.867Z,21.00
2022-08-16T19:46:52.608Z,20.98
2022-08-16T19:49:21.392Z,20.98
2022-08-16T19:51:50.824Z,20.98
2022-08-16T19:54:20.171Z,20.97
2022-08-16T19:56:48.812Z,20.97
2022-08-16T19:59:19.900Z,20.98
2022-08-16T20:01:53.604Z,20.96
2022-08-16T20:04:24.765Z,20.93
2022-08-16T20:06:54.593Z,20.91
2022-08-16T20:09:25.104Z,20.88
2022-08-16T20:11:54.209Z,20.82
2022-08-16T20:14:25.581Z,20.76
2022-08-16T20:16:58.885Z,20.73
2022-08-16T20:19:32.517Z,20.72
2022-08-16T20:22:52.464Z,20.74
2022-08-16T20:25:29.187Z,20.71
2022-08-16T20:28:00.107Z,20.57
2022-08-16T20:30:29.447Z,20.44
2022-08-16T20:32:58.081Z,20.31
2022-08-16T20:35:28.710Z,20.25
2022-08-16T20:37:57.374Z,20.22
2022-08-16T20:40:33.707Z,20.17
2022-08-16T20:43:09.687Z,20.14
2022-08-16T20:45:40.672Z,20.14
2022-08-16T20:48:09.588Z,20.08
2022-08-16T20:50:39.165Z,20.02
2022-08-16T20:53:08.627Z,19.95
2022-08-16T20:55:40.310Z,19.87
2022-08-16T20:58:09.001Z,19.77
2022-08-16T21:00:38.684Z,19.77
2022-08-16T21:03:10.986Z,19.83
2022-08-16T21:05:39.985Z,19.84
2022-08-16T21:08:52.432Z,19.90
2022-08-16T21:10:58.877Z,19.93
2022-08-16T21:13:30.961Z,19.96
2022-08-16T21:16:02.615Z,19.98
2022-08-16T21:18:31.279Z,19.96
2022-08-16T21:20:59.957Z,19.97
2022-08-16T21:23:28.613Z,19.99
2022-08-16T21:25:59.341Z,20.02
2022-08-16T21:28:41.348Z,20.05
2022-08-16T21:31:12.801Z,20.04
2022-08-16T21:33:43.494Z,20.03
2022-08-16T21:36:13.255Z,20.02
2022-08-16T21:38:41.981Z,20.02
2022-08-16T21:41:13.053Z,20.00
2022-08-16T21:43:42.288Z,19.95
2022-08-16T21:46:11.152Z,19.91
2022-08-16T21:48:40.729Z,19.89
2022-08-16T21:51:15.844Z,19.84
2022-08-16T21:53:45.084Z,19.80
2022-08-16T21:56:17.221Z,19.80
2022-08-16T21:58:53.250Z,19.80
2022-08-16T22:01:23.798Z,19.77
2022-08-16T22:04:01.561Z,19.72
2022-08-16T22:06:43.300Z,19.67
2022-08-16T22:09:16.838Z,19.63
2022-08-16T22:11:45.547Z,19.58
2022-08-16T22:14:14.186Z,19.58
2022-08-16T22:16:43.708Z,19.55
2022-08-16T22:19:13.481Z,19.52
2022-08-16T22:21:42.243Z,19.51
2022-08-16T22:24:10.953Z,19.49
2022-08-16T22:26:43.025Z,19.47
2022-08-16T22:29:15.312Z,19.45
2022-08-16T22:31:44.940Z,19.41
2022-08-16T22:34:14.305Z,19.33
2022-08-16T22:36:43.065Z,19.30
2022-08-16T22:39:14.784Z,19.26
2022-08-16T22:41:45.951Z,19.20
2022-08-16T22:44:14.761Z,19.16
2022-08-16T22:46:43.379Z,19.15
2022-08-16T22:49:13.310Z,19.11
2022-08-16T22:51:42.128Z,19.09
2022-08-16T22:54:45.888Z,19.10
2022-08-16T22:57:01.190Z,19.10
2022-08-16T22:59:32.394Z,19.07
2022-08-16T23:02:06.498Z,19.03
2022-08-16T23:04:35.218Z,18.99
2022-08-16T23:07:05.825Z,18.96
2022-08-16T23:09:34.652Z,18.96
2022-08-16T23:12:07.466Z,18.98
2022-08-16T23:14:35.889Z,18.99
2022-08-16T23:17:04.778Z,18.97
2022-08-16T23:19:33.420Z,18.92
2022-08-16T23:22:02.114Z,18.92
2022-08-16T23:24:30.859Z,18.88
2022-08-16T23:27:06.087Z,18.84
2022-08-16T23:29:34.829Z,18.78
2022-08-16T23:32:11.718Z,18.74
2022-08-16T23:34:40.359Z,18.71
2022-08-16T23:37:09.515Z,18.66
2022-08-16T23:39:38.616Z,18.64
2022-08-16T23:42:52.401Z,18.62
2022-08-16T23:45:06.577Z,18.58
2022-08-16T23:47:35.218Z,18.55
2022-08-16T23:50:04.555Z,18.54
2022-08-16T23:52:45.286Z,18.50
2022-08-16T23:55:23.050Z,18.46
2022-08-16T23:57:52.359Z,18.43
